Share

Alexander City, AL

Russell (KALX) Elev 686 ft | 32.91 °N, 85.96 °W | Change Station

Current weather conditions updated 26 minutes ago

Scattered Clouds
Scattered Clouds
62 °F
Feels Like 62 °F
N
6
Wind Variable Wind from East
Sunrise 6:09 AM
Sunset 7:16 PM
Moon Waning Gibbous

Tomorrow is forecast to be Warmer than today.

Pressure 30.18 in
Visibility 10.0 miles
Clouds Scattered Clouds 1500 ft
Scattered Clouds 8000 ft
Dew Point 54 °F
Humidity 76%
Rainfall 0.03 in
Snow Depth Not available.
UV 0 out of 16
Pollen 6.90 out of 12
Ozone Good
PM2.5 Moderate
Flu Activity Sporadic
METAR KALX 200335Z AUTO 08005KT 10SM SCT015 SCT080 17/13 A3018 RMK AO2 T01680125

More Conditions Fewer Conditions

Pressure 30.18 in
Visibility 10.0 miles
Clouds Scattered Clouds 1500 ft
Scattered Clouds 8000 ft
Dew Point 54 °F
Humidity 76%
Rainfall 0.03 in
Snow Depth Not available.
UV 0 out of 16
Pollen 6.90 out of 12
Ozone Good
PM2.5 Moderate
Flu Activity Sporadic
METAR KALX 200335Z AUTO 08005KT 10SM SCT015 SCT080 17/13 A3018 RMK AO2 T01680125

More Conditions Fewer Conditions

10-Day Weather Forecast

Almanac

Astronomy

Apr. 19, 2014 Rise Set
Actual Time 6:09 AM CDT 7:16 PM CDT
Civil Twilight 5:43 AM CDT 7:42 PM CDT
Nautical Twilight 5:13 AM CDT 8:12 PM CDT
Astronomical Twilight 4:41 AM CDT 8:44 PM CDT
Moon 11:50 PM CDT (4/19) 9:34 AM CDT (4/19)
Length of Visible Light 13h 58m
Length of Day
13h 07m
Tomorrow will be 1m 54s longer.
Waning Gibbous, 74% of the Moon is Illuminated
Apr 20
Waning Gibbous
Apr 22
Last Quarter
Apr 29
New
May 6
First Quarter
May 14
Full

Today's Extremes

State Highs State Lows

Community

  • Cherry Blossoms
    Cherry Blossoms
  • White-Crowned Sparrow
    White-Crowned Sparrow
  • New Day
    New Day
  • Happy Easter!
    Happy Easter!
  • poppy bloom near Mazar-e-Sharif
    poppy bloom near Mazar-e-Sharif

WunderPhotos

Upload Photos

1,703,078 photos uploaded!

WunderBlogs® & News

Nearby

Air Quality

  Air Quality AQ Index Pollutant
Yesterday Good
PM10
Yesterday Good
OZONE
Current Moderate
PM2.5
Current Good
OZONE
Saturday Good
PM2.5
Saturday Good
OZONE
Sunday Moderate
PM2.5
Sunday Good
OZONE
Monday Moderate
PM2.5
Monday Good
OZONE

Snow Depth

Station Depth Elevation
No new snow has been reported.

Coastal Water Temperatures

Place Temperature
No Stations Reporting

Earthquake Activity

City Distance Mag. Time & Date
No recent earthquake activity has been reported nearby.
Minimum magnitude displayed is 2.5.

Nearby Weather Stations

Station Location Temp. Dew Point Humidity Wind Precip. Elev Updated Type
Riddle, Titus, AL 59.9 °F 57 °F 89% East  at  5.5 mph - / hr 500 ft 11:00 PM CDT Normal
Franklyn Farm, Tallassee, AL 59.8 °F 52 °F 76% NNE  at  7.2 mph 0.00 in / hr 435 ft 11:01 PM CDT Rapid Fire

Show More Stations Show Fewer Stations

What do you think?

We're not finished. Please let us know what you like, what you don't like, and what you are still missing.